Terminal Aerodrome Forecast
Issued by NWS

Home | Current Version | Previous Version | Text Only | Print | Product List | Glossary On
Versions: 1 2 3 4 5 6 7 8 9 10 11 12 13 14 15 16 17 18 19 20 21 22 23 24 25 26 27 28
000
FTUS41 KPBZ 260604 CCB
TAFHLG
TAF COR
KHLG 260604Z 2606/2706 26009KT 6SM -SHRA OVC003
      TEMPO 2606/2608 P6SM OVC014
     FM260800 27012KT 5SM BR VCSH OVC008
     FM261500 27009KT P6SM BKN010
     FM261700 26010KT P6SM BKN020
     FM261900 26010KT P6SM BKN030
     FM270000 29005KT P6SM BKN035=

USA.gov is the U.S. government's official web portal to all federal, state and local government web resources and services.